sensor_id;sensor_type;location;lat;lon;timestamp;P1;durP1;ratioP1;P2;durP2;ratioP2
22648;SDS011;11491;41.942;24.220;2022-08-19T00:00:19;14.02;;;10.75;;
22648;SDS011;11491;41.942;24.220;2022-08-19T00:02:45;12.18;;;10.90;;
22648;SDS011;11491;41.942;24.220;2022-08-19T00:05:13;13.80;;;11.07;;
22648;SDS011;11491;41.942;24.220;2022-08-19T00:07:41;11.77;;;10.65;;
22648;SDS011;11491;41.942;24.220;2022-08-19T00:10:09;11.65;;;10.48;;
22648;SDS011;11491;41.942;24.220;2022-08-19T00:12:37;11.45;;;10.35;;
22648;SDS011;11491;41.942;24.220;2022-08-19T00:15:06;13.27;;;10.60;;
22648;SDS011;11491;41.942;24.220;2022-08-19T00:17:36;11.77;;;10.27;;
22648;SDS011;11491;41.942;24.220;2022-08-19T00:20:04;14.95;;;10.93;;
22648;SDS011;11491;41.942;24.220;2022-08-19T00:22:31;14.35;;;10.45;;
22648;SDS011;11491;41.942;24.220;2022-08-19T00:24:58;11.38;;;9.77;;
22648;SDS011;11491;41.942;24.220;2022-08-19T00:27:25;12.52;;;9.85;;
22648;SDS011;11491;41.942;24.220;2022-08-19T00:29:51;11.45;;;10.35;;
22648;SDS011;11491;41.942;24.220;2022-08-19T00:32:20;11.55;;;10.32;;
22648;SDS011;11491;41.942;24.220;2022-08-19T00:34:47;13.65;;;10.48;;
22648;SDS011;11491;41.942;24.220;2022-08-19T00:37:13;12.88;;;11.00;;
22648;SDS011;11491;41.942;24.220;2022-08-19T00:39:40;11.80;;;10.65;;
22648;SDS011;11491;41.942;24.220;2022-08-19T00:42:07;11.18;;;10.07;;
22648;SDS011;11491;41.942;24.220;2022-08-19T00:44:34;13.88;;;10.35;;
22648;SDS011;11491;41.942;24.220;2022-08-19T00:47:00;11.93;;;10.32;;
22648;SDS011;11491;41.942;24.220;2022-08-19T00:49:29;11.32;;;10.10;;
22648;SDS011;11491;41.942;24.220;2022-08-19T00:52:03;11.13;;;9.93;;
22648;SDS011;11491;41.942;24.220;2022-08-19T00:54:33;11.68;;;10.48;;
22648;SDS011;11491;41.942;24.220;2022-08-19T00:57:03;11.18;;;9.98;;
22648;SDS011;11491;41.942;24.220;2022-08-19T00:59:32;13.82;;;10.05;;
22648;SDS011;11491;41.942;24.220;2022-08-19T01:02:01;11.32;;;10.13;;
22648;SDS011;11491;41.942;24.220;2022-08-19T01:04:30;11.95;;;9.98;;
22648;SDS011;11491;41.942;24.220;2022-08-19T01:06:57;10.60;;;9.60;;
22648;SDS011;11491;41.942;24.220;2022-08-19T01:09:24;12.02;;;10.27;;
22648;SDS011;11491;41.942;24.220;2022-08-19T01:11:51;11.95;;;10.40;;
22648;SDS011;11491;41.942;24.220;2022-08-19T01:14:19;11.30;;;9.98;;
22648;SDS011;11491;41.942;24.220;2022-08-19T01:16:46;11.80;;;9.15;;
22648;SDS011;11491;41.942;24.220;2022-08-19T01:19:15;11.35;;;10.25;;
22648;SDS011;11491;41.942;24.220;2022-08-19T01:21:51;11.50;;;9.05;;
22648;SDS011;11491;41.942;24.220;2022-08-19T01:24:23;11.10;;;10.00;;
22648;SDS011;11491;41.942;24.220;2022-08-19T01:26:50;10.10;;;9.15;;
22648;SDS011;11491;41.942;24.220;2022-08-19T01:29:16;10.85;;;9.75;;
22648;SDS011;11491;41.942;24.220;2022-08-19T01:31:43;13.75;;;10.00;;
22648;SDS011;11491;41.942;24.220;2022-08-19T01:34:10;10.35;;;9.35;;
22648;SDS011;11491;41.942;24.220;2022-08-19T01:36:38;11.32;;;10.10;;
22648;SDS011;11491;41.942;24.220;2022-08-19T01:39:09;12.57;;;10.15;;
22648;SDS011;11491;41.942;24.220;2022-08-19T01:41:38;12.27;;;10.05;;
22648;SDS011;11491;41.942;24.220;2022-08-19T01:44:06;10.73;;;9.73;;
22648;SDS011;11491;41.942;24.220;2022-08-19T01:46:34;12.30;;;10.23;;
22648;SDS011;11491;41.942;24.220;2022-08-19T01:49:02;11.90;;;10.63;;
22648;SDS011;11491;41.942;24.220;2022-08-19T01:51:30;9.88;;;8.88;;
22648;SDS011;11491;41.942;24.220;2022-08-19T01:53:57;11.38;;;10.13;;
22648;SDS011;11491;41.942;24.220;2022-08-19T01:56:24;11.32;;;10.13;;
22648;SDS011;11491;41.942;24.220;2022-08-19T01:58:57;12.32;;;10.50;;
22648;SDS011;11491;41.942;24.220;2022-08-19T02:01:28;11.32;;;10.23;;
22648;SDS011;11491;41.942;24.220;2022-08-19T02:03:57;11.35;;;10.25;;
22648;SDS011;11491;41.942;24.220;2022-08-19T02:06:25;14.13;;;10.57;;
22648;SDS011;11491;41.942;24.220;2022-08-19T02:08:52;11.25;;;10.15;;
22648;SDS011;11491;41.942;24.220;2022-08-19T02:11:19;11.02;;;9.20;;
22648;SDS011;11491;41.942;24.220;2022-08-19T02:13:48;11.02;;;9.93;;
22648;SDS011;11491;41.942;24.220;2022-08-19T02:16:17;14.13;;;10.00;;
22648;SDS011;11491;41.942;24.220;2022-08-19T02:18:45;12.95;;;10.60;;
22648;SDS011;11491;41.942;24.220;2022-08-19T02:21:13;10.77;;;9.63;;
22648;SDS011;11491;41.942;24.220;2022-08-19T02:23:40;12.27;;;8.80;;
22648;SDS011;11491;41.942;24.220;2022-08-19T02:26:07;11.80;;;10.30;;
22648;SDS011;11491;41.942;24.220;2022-08-19T02:28:35;11.43;;;10.23;;
22648;SDS011;11491;41.942;24.220;2022-08-19T02:31:02;11.10;;;9.85;;
22648;SDS011;11491;41.942;24.220;2022-08-19T02:33:30;12.02;;;10.25;;
22648;SDS011;11491;41.942;24.220;2022-08-19T02:35:57;12.93;;;10.70;;
22648;SDS011;11491;41.942;24.220;2022-08-19T02:38:24;10.90;;;9.88;;
22648;SDS011;11491;41.942;24.220;2022-08-19T02:40:54;13.13;;;10.73;;
22648;SDS011;11491;41.942;24.220;2022-08-19T02:43:22;12.73;;;10.43;;
22648;SDS011;11491;41.942;24.220;2022-08-19T02:45:51;13.20;;;10.35;;
22648;SDS011;11491;41.942;24.220;2022-08-19T02:48:18;13.05;;;10.25;;
22648;SDS011;11491;41.942;24.220;2022-08-19T02:50:48;10.75;;;9.68;;
22648;SDS011;11491;41.942;24.220;2022-08-19T02:53:20;11.27;;;9.98;;
22648;SDS011;11491;41.942;24.220;2022-08-19T02:55:48;14.60;;;10.43;;
22648;SDS011;11491;41.942;24.220;2022-08-19T02:58:16;11.10;;;9.90;;
22648;SDS011;11491;41.942;24.220;2022-08-19T03:00:44;11.30;;;9.80;;
22648;SDS011;11491;41.942;24.220;2022-08-19T03:03:13;11.52;;;9.55;;
22648;SDS011;11491;41.942;24.220;2022-08-19T03:05:40;11.68;;;9.88;;
22648;SDS011;11491;41.942;24.220;2022-08-19T03:08:09;13.32;;;9.98;;
22648;SDS011;11491;41.942;24.220;2022-08-19T03:10:40;11.20;;;10.10;;
22648;SDS011;11491;41.942;24.220;2022-08-19T03:13:09;12.45;;;9.48;;
22648;SDS011;11491;41.942;24.220;2022-08-19T03:15:39;11.60;;;9.73;;
22648;SDS011;11491;41.942;24.220;2022-08-19T03:18:07;11.32;;;9.70;;
22648;SDS011;11491;41.942;24.220;2022-08-19T03:20:39;13.10;;;10.07;;
22648;SDS011;11491;41.942;24.220;2022-08-19T03:23:06;11.75;;;9.55;;
22648;SDS011;11491;41.942;24.220;2022-08-19T03:25:36;11.40;;;10.23;;
22648;SDS011;11491;41.942;24.220;2022-08-19T03:28:05;13.90;;;10.40;;
22648;SDS011;11491;41.942;24.220;2022-08-19T03:30:32;12.63;;;9.95;;
22648;SDS011;11491;41.942;24.220;2022-08-19T03:32:59;10.65;;;9.38;;
22648;SDS011;11491;41.942;24.220;2022-08-19T03:35:26;11.05;;;9.82;;
22648;SDS011;11491;41.942;24.220;2022-08-19T03:37:53;11.65;;;10.18;;
22648;SDS011;11491;41.942;24.220;2022-08-19T03:40:22;12.50;;;10.50;;
22648;SDS011;11491;41.942;24.220;2022-08-19T03:42:49;10.85;;;9.75;;
22648;SDS011;11491;41.942;24.220;2022-08-19T03:45:16;11.30;;;9.45;;
22648;SDS011;11491;41.942;24.220;2022-08-19T03:47:43;10.27;;;9.23;;
22648;SDS011;11491;41.942;24.220;2022-08-19T03:50:10;11.10;;;9.50;;
22648;SDS011;11491;41.942;24.220;2022-08-19T03:52:37;12.13;;;10.18;;
22648;SDS011;11491;41.942;24.220;2022-08-19T03:55:05;14.68;;;11.65;;
22648;SDS011;11491;41.942;24.220;2022-08-19T03:57:34;11.18;;;10.07;;
22648;SDS011;11491;41.942;24.220;2022-08-19T04:00:01;10.73;;;9.70;;
22648;SDS011;11491;41.942;24.220;2022-08-19T04:02:31;11.07;;;9.93;;
22648;SDS011;11491;41.942;24.220;2022-08-19T04:04:57;11.50;;;10.27;;
22648;SDS011;11491;41.942;24.220;2022-08-19T04:07:24;15.77;;;11.05;;
22648;SDS011;11491;41.942;24.220;2022-08-19T04:09:51;12.05;;;10.10;;
22648;SDS011;11491;41.942;24.220;2022-08-19T04:12:18;10.90;;;9.45;;
22648;SDS011;11491;41.942;24.220;2022-08-19T04:14:46;12.13;;;10.93;;
22648;SDS011;11491;41.942;24.220;2022-08-19T04:17:13;12.65;;;11.18;;
22648;SDS011;11491;41.942;24.220;2022-08-19T04:19:40;17.63;;;11.90;;
22648;SDS011;11491;41.942;24.220;2022-08-19T04:22:08;11.98;;;10.38;;
22648;SDS011;11491;41.942;24.220;2022-08-19T04:24:35;13.48;;;11.32;;
22648;SDS011;11491;41.942;24.220;2022-08-19T04:27:03;15.27;;;11.13;;
22648;SDS011;11491;41.942;24.220;2022-08-19T04:29:31;18.88;;;11.63;;
22648;SDS011;11491;41.942;24.220;2022-08-19T04:31:59;16.20;;;12.05;;
22648;SDS011;11491;41.942;24.220;2022-08-19T04:34:27;13.73;;;11.25;;
22648;SDS011;11491;41.942;24.220;2022-08-19T04:36:55;13.82;;;11.05;;
22648;SDS011;11491;41.942;24.220;2022-08-19T04:39:25;14.57;;;11.35;;
22648;SDS011;11491;41.942;24.220;2022-08-19T04:42:15;12.65;;;11.35;;
22648;SDS011;11491;41.942;24.220;2022-08-19T04:45:00;12.88;;;11.27;;
22648;SDS011;11491;41.942;24.220;2022-08-19T04:47:29;13.35;;;11.27;;
22648;SDS011;11491;41.942;24.220;2022-08-19T04:49:57;14.75;;;11.52;;
22648;SDS011;11491;41.942;24.220;2022-08-19T04:52:24;15.68;;;11.35;;
22648;SDS011;11491;41.942;24.220;2022-08-19T04:54:51;13.43;;;10.73;;
22648;SDS011;11491;41.942;24.220;2022-08-19T04:57:20;12.63;;;11.32;;
22648;SDS011;11491;41.942;24.220;2022-08-19T04:59:47;11.73;;;10.20;;
22648;SDS011;11491;41.942;24.220;2022-08-19T05:02:14;12.10;;;10.80;;
22648;SDS011;11491;41.942;24.220;2022-08-19T05:04:42;16.98;;;11.30;;
22648;SDS011;11491;41.942;24.220;2022-08-19T05:07:09;18.25;;;11.07;;
22648;SDS011;11491;41.942;24.220;2022-08-19T05:09:36;14.32;;;10.48;;
22648;SDS011;11491;41.942;24.220;2022-08-19T05:12:03;14.43;;;10.02;;
22648;SDS011;11491;41.942;24.220;2022-08-19T05:14:31;13.32;;;10.48;;
22648;SDS011;11491;41.942;24.220;2022-08-19T05:16:58;18.15;;;11.13;;
22648;SDS011;11491;41.942;24.220;2022-08-19T05:19:24;15.13;;;11.20;;
22648;SDS011;11491;41.942;24.220;2022-08-19T05:22:10;15.00;;;11.43;;
22648;SDS011;11491;41.942;24.220;2022-08-19T05:24:54;11.60;;;10.40;;
22648;SDS011;11491;41.942;24.220;2022-08-19T05:27:21;11.95;;;9.63;;
22648;SDS011;11491;41.942;24.220;2022-08-19T05:29:48;12.43;;;10.73;;
22648;SDS011;11491;41.942;24.220;2022-08-19T05:32:15;11.88;;;9.50;;
22648;SDS011;11491;41.942;24.220;2022-08-19T05:34:42;11.02;;;9.23;;
22648;SDS011;11491;41.942;24.220;2022-08-19T05:37:10;12.52;;;8.70;;
22648;SDS011;11491;41.942;24.220;2022-08-19T05:39:37;13.63;;;9.27;;
22648;SDS011;11491;41.942;24.220;2022-08-19T05:42:06;10.23;;;9.18;;
22648;SDS011;11491;41.942;24.220;2022-08-19T05:44:36;9.93;;;8.85;;
22648;SDS011;11491;41.942;24.220;2022-08-19T05:47:06;10.32;;;9.32;;
22648;SDS011;11491;41.942;24.220;2022-08-19T05:49:34;11.02;;;9.90;;
22648;SDS011;11491;41.942;24.220;2022-08-19T05:52:02;16.38;;;9.52;;
22648;SDS011;11491;41.942;24.220;2022-08-19T05:54:32;10.63;;;9.48;;
22648;SDS011;11491;41.942;24.220;2022-08-19T05:57:01;10.45;;;8.73;;
22648;SDS011;11491;41.942;24.220;2022-08-19T05:59:28;9.70;;;8.55;;
22648;SDS011;11491;41.942;24.220;2022-08-19T06:01:55;12.73;;;8.90;;
22648;SDS011;11491;41.942;24.220;2022-08-19T06:04:22;10.52;;;8.10;;
22648;SDS011;11491;41.942;24.220;2022-08-19T06:06:51;11.63;;;7.35;;
22648;SDS011;11491;41.942;24.220;2022-08-19T06:09:19;10.25;;;7.47;;
22648;SDS011;11491;41.942;24.220;2022-08-19T06:11:49;17.40;;;8.18;;
22648;SDS011;11491;41.942;24.220;2022-08-19T06:14:20;9.68;;;7.65;;
22648;SDS011;11491;41.942;24.220;2022-08-19T06:16:49;9.77;;;7.72;;
22648;SDS011;11491;41.942;24.220;2022-08-19T06:19:18;8.88;;;7.95;;
22648;SDS011;11491;41.942;24.220;2022-08-19T06:21:46;8.57;;;7.55;;
22648;SDS011;11491;41.942;24.220;2022-08-19T06:24:16;8.55;;;7.72;;
22648;SDS011;11491;41.942;24.220;2022-08-19T06:26:45;7.45;;;6.75;;
22648;SDS011;11491;41.942;24.220;2022-08-19T06:29:16;9.82;;;7.15;;
22648;SDS011;11491;41.942;24.220;2022-08-19T06:31:45;9.60;;;7.07;;
22648;SDS011;11491;41.942;24.220;2022-08-19T06:34:14;10.70;;;7.45;;
22648;SDS011;11491;41.942;24.220;2022-08-19T06:36:43;8.88;;;7.97;;
22648;SDS011;11491;41.942;24.220;2022-08-19T06:39:13;7.75;;;7.05;;
22648;SDS011;11491;41.942;24.220;2022-08-19T06:41:42;7.15;;;6.45;;
22648;SDS011;11491;41.942;24.220;2022-08-19T06:44:11;6.72;;;6.13;;
22648;SDS011;11491;41.942;24.220;2022-08-19T06:46:39;6.20;;;5.60;;
22648;SDS011;11491;41.942;24.220;2022-08-19T06:49:07;6.80;;;6.10;;
22648;SDS011;11491;41.942;24.220;2022-08-19T06:51:36;7.82;;;6.45;;
22648;SDS011;11491;41.942;24.220;2022-08-19T06:54:04;11.32;;;6.05;;
22648;SDS011;11491;41.942;24.220;2022-08-19T06:56:31;7.10;;;5.60;;
22648;SDS011;11491;41.942;24.220;2022-08-19T06:59:00;6.07;;;5.57;;
22648;SDS011;11491;41.942;24.220;2022-08-19T07:01:27;6.00;;;5.13;;
22648;SDS011;11491;41.942;24.220;2022-08-19T07:03:55;6.57;;;5.18;;
22648;SDS011;11491;41.942;24.220;2022-08-19T07:06:22;9.73;;;5.07;;
22648;SDS011;11491;41.942;24.220;2022-08-19T07:08:49;5.53;;;4.80;;
22648;SDS011;11491;41.942;24.220;2022-08-19T07:11:17;6.63;;;4.68;;
22648;SDS011;11491;41.942;24.220;2022-08-19T07:13:45;5.45;;;4.90;;
22648;SDS011;11491;41.942;24.220;2022-08-19T07:16:14;6.45;;;5.05;;
22648;SDS011;11491;41.942;24.220;2022-08-19T07:18:44;7.88;;;5.10;;
22648;SDS011;11491;41.942;24.220;2022-08-19T07:21:14;5.97;;;5.15;;
22648;SDS011;11491;41.942;24.220;2022-08-19T07:23:43;7.80;;;5.28;;
22648;SDS011;11491;41.942;24.220;2022-08-19T07:26:11;6.57;;;5.75;;
22648;SDS011;11491;41.942;24.220;2022-08-19T07:28:40;6.15;;;5.15;;
22648;SDS011;11491;41.942;24.220;2022-08-19T07:31:09;6.03;;;5.40;;
22648;SDS011;11491;41.942;24.220;2022-08-19T07:33:38;8.18;;;5.45;;
22648;SDS011;11491;41.942;24.220;2022-08-19T07:36:07;5.95;;;5.00;;
22648;SDS011;11491;41.942;24.220;2022-08-19T07:38:38;9.23;;;5.22;;
22648;SDS011;11491;41.942;24.220;2022-08-19T07:41:06;5.63;;;5.13;;
22648;SDS011;11491;41.942;24.220;2022-08-19T07:43:33;8.25;;;5.05;;
22648;SDS011;11491;41.942;24.220;2022-08-19T07:45:59;6.55;;;5.10;;
22648;SDS011;11491;41.942;24.220;2022-08-19T07:48:26;8.60;;;5.20;;
22648;SDS011;11491;41.942;24.220;2022-08-19T07:50:55;5.50;;;4.90;;
22648;SDS011;11491;41.942;24.220;2022-08-19T07:53:33;6.10;;;5.03;;
22648;SDS011;11491;41.942;24.220;2022-08-19T07:56:03;5.50;;;4.97;;
22648;SDS011;11491;41.942;24.220;2022-08-19T07:58:32;7.78;;;6.63;;
22648;SDS011;11491;41.942;24.220;2022-08-19T08:01:00;5.85;;;4.95;;
22648;SDS011;11491;41.942;24.220;2022-08-19T08:03:28;7.95;;;4.97;;
22648;SDS011;11491;41.942;24.220;2022-08-19T08:06:09;7.43;;;5.28;;
22648;SDS011;11491;41.942;24.220;2022-08-19T08:08:53;8.70;;;4.85;;
22648;SDS011;11491;41.942;24.220;2022-08-19T08:11:44;8.75;;;5.18;;
22648;SDS011;11491;41.942;24.220;2022-08-19T08:14:14;6.93;;;5.13;;
22648;SDS011;11491;41.942;24.220;2022-08-19T08:16:42;6.10;;;5.30;;
22648;SDS011;11491;41.942;24.220;2022-08-19T08:19:10;6.70;;;5.18;;
22648;SDS011;11491;41.942;24.220;2022-08-19T08:21:40;8.38;;;5.40;;
22648;SDS011;11491;41.942;24.220;2022-08-19T08:24:07;7.60;;;4.90;;
22648;SDS011;11491;41.942;24.220;2022-08-19T08:26:33;6.05;;;5.40;;
22648;SDS011;11491;41.942;24.220;2022-08-19T08:29:02;6.63;;;4.75;;
22648;SDS011;11491;41.942;24.220;2022-08-19T08:31:29;9.02;;;5.60;;
22648;SDS011;11491;41.942;24.220;2022-08-19T08:33:56;6.53;;;4.75;;
22648;SDS011;11491;41.942;24.220;2022-08-19T08:36:22;6.20;;;5.13;;
22648;SDS011;11491;41.942;24.220;2022-08-19T08:38:49;5.47;;;4.90;;
22648;SDS011;11491;41.942;24.220;2022-08-19T08:41:18;9.52;;;5.32;;
22648;SDS011;11491;41.942;24.220;2022-08-19T08:43:54;6.78;;;5.35;;
22648;SDS011;11491;41.942;24.220;2022-08-19T08:46:27;8.63;;;4.85;;
22648;SDS011;11491;41.942;24.220;2022-08-19T08:49:01;7.45;;;4.70;;
22648;SDS011;11491;41.942;24.220;2022-08-19T08:51:35;8.88;;;4.90;;
22648;SDS011;11491;41.942;24.220;2022-08-19T08:54:05;9.00;;;4.70;;
22648;SDS011;11491;41.942;24.220;2022-08-19T08:56:33;8.80;;;5.03;;
22648;SDS011;11491;41.942;24.220;2022-08-19T08:59:03;5.57;;;4.97;;
22648;SDS011;11491;41.942;24.220;2022-08-19T09:01:36;5.40;;;4.90;;
22648;SDS011;11491;41.942;24.220;2022-08-19T09:04:03;5.90;;;4.65;;
22648;SDS011;11491;41.942;24.220;2022-08-19T09:06:34;5.97;;;5.10;;
22648;SDS011;11491;41.942;24.220;2022-08-19T09:09:05;8.68;;;5.35;;
22648;SDS011;11491;41.942;24.220;2022-08-19T09:11:50;5.57;;;4.97;;
22648;SDS011;11491;41.942;24.220;2022-08-19T09:14:32;9.98;;;4.97;;
22648;SDS011;11491;41.942;24.220;2022-08-19T09:17:08;12.60;;;5.47;;
22648;SDS011;11491;41.942;24.220;2022-08-19T09:19:36;9.15;;;5.20;;
22648;SDS011;11491;41.942;24.220;2022-08-19T09:22:15;8.07;;;4.97;;
22648;SDS011;11491;41.942;24.220;2022-08-19T09:24:42;5.20;;;4.43;;
22648;SDS011;11491;41.942;24.220;2022-08-19T09:27:08;5.40;;;4.90;;
22648;SDS011;11491;41.942;24.220;2022-08-19T09:29:35;6.13;;;4.60;;
22648;SDS011;11491;41.942;24.220;2022-08-19T09:32:02;5.10;;;4.60;;
22648;SDS011;11491;41.942;24.220;2022-08-19T09:34:31;7.63;;;4.85;;
22648;SDS011;11491;41.942;24.220;2022-08-19T09:36:58;6.70;;;4.68;;
22648;SDS011;11491;41.942;24.220;2022-08-19T09:39:26;5.10;;;4.50;;
22648;SDS011;11491;41.942;24.220;2022-08-19T09:41:53;5.15;;;4.57;;
22648;SDS011;11491;41.942;24.220;2022-08-19T09:44:22;5.40;;;4.15;;
22648;SDS011;11491;41.942;24.220;2022-08-19T09:46:49;6.68;;;4.45;;
22648;SDS011;11491;41.942;24.220;2022-08-19T09:49:19;5.70;;;4.35;;
22648;SDS011;11491;41.942;24.220;2022-08-19T09:51:50;7.53;;;4.80;;
22648;SDS011;11491;41.942;24.220;2022-08-19T09:54:18;4.40;;;4.00;;
22648;SDS011;11491;41.942;24.220;2022-08-19T09:56:45;8.68;;;4.43;;
22648;SDS011;11491;41.942;24.220;2022-08-19T09:59:12;6.80;;;4.30;;
22648;SDS011;11491;41.942;24.220;2022-08-19T10:01:39;6.60;;;4.60;;
22648;SDS011;11491;41.942;24.220;2022-08-19T10:04:06;5.60;;;4.38;;
22648;SDS011;11491;41.942;24.220;2022-08-19T10:06:34;10.05;;;7.13;;
22648;SDS011;11491;41.942;24.220;2022-08-19T10:09:04;7.78;;;4.72;;
22648;SDS011;11491;41.942;24.220;2022-08-19T10:11:32;6.25;;;4.30;;
22648;SDS011;11491;41.942;24.220;2022-08-19T10:14:00;6.75;;;4.47;;
22648;SDS011;11491;41.942;24.220;2022-08-19T10:16:27;5.22;;;4.72;;
22648;SDS011;11491;41.942;24.220;2022-08-19T10:18:54;5.80;;;4.05;;
22648;SDS011;11491;41.942;24.220;2022-08-19T10:21:22;4.63;;;4.22;;
22648;SDS011;11491;41.942;24.220;2022-08-19T10:23:52;4.68;;;4.25;;
22648;SDS011;11491;41.942;24.220;2022-08-19T10:26:24;7.03;;;6.32;;
22648;SDS011;11491;41.942;24.220;2022-08-19T10:28:52;5.85;;;4.57;;
22648;SDS011;11491;41.942;24.220;2022-08-19T10:31:20;18.38;;;10.40;;
22648;SDS011;11491;41.942;24.220;2022-08-19T10:33:48;13.52;;;9.05;;
22648;SDS011;11491;41.942;24.220;2022-08-19T10:36:22;16.85;;;8.25;;
22648;SDS011;11491;41.942;24.220;2022-08-19T10:38:52;7.60;;;6.25;;
22648;SDS011;11491;41.942;24.220;2022-08-19T10:41:23;6.15;;;5.03;;
22648;SDS011;11491;41.942;24.220;2022-08-19T10:43:53;5.35;;;3.90;;
22648;SDS011;11491;41.942;24.220;2022-08-19T10:46:23;5.40;;;4.25;;
22648;SDS011;11491;41.942;24.220;2022-08-19T10:48:52;4.63;;;3.50;;
22648;SDS011;11491;41.942;24.220;2022-08-19T10:51:20;6.10;;;4.05;;
22648;SDS011;11491;41.942;24.220;2022-08-19T10:54:04;6.28;;;3.90;;
22648;SDS011;11491;41.942;24.220;2022-08-19T10:56:33;4.40;;;4.00;;
22648;SDS011;11491;41.942;24.220;2022-08-19T10:59:18;4.20;;;3.78;;
22648;SDS011;11491;41.942;24.220;2022-08-19T11:01:47;4.78;;;3.65;;
22648;SDS011;11491;41.942;24.220;2022-08-19T11:04:14;5.57;;;3.95;;
22648;SDS011;11491;41.942;24.220;2022-08-19T11:06:42;4.70;;;3.65;;
22648;SDS011;11491;41.942;24.220;2022-08-19T11:09:12;7.03;;;4.30;;
22648;SDS011;11491;41.942;24.220;2022-08-19T11:11:41;4.20;;;3.50;;
22648;SDS011;11491;41.942;24.220;2022-08-19T11:14:09;5.25;;;3.60;;
22648;SDS011;11491;41.942;24.220;2022-08-19T11:16:37;6.18;;;3.70;;
22648;SDS011;11491;41.942;24.220;2022-08-19T11:19:05;4.68;;;3.63;;
22648;SDS011;11491;41.942;24.220;2022-08-19T11:21:34;4.78;;;3.30;;
22648;SDS011;11491;41.942;24.220;2022-08-19T11:24:03;5.25;;;3.42;;
22648;SDS011;11491;41.942;24.220;2022-08-19T11:26:32;4.18;;;3.38;;
22648;SDS011;11491;41.942;24.220;2022-08-19T11:29:01;3.42;;;3.08;;
22648;SDS011;11491;41.942;24.220;2022-08-19T11:31:29;3.40;;;3.15;;
22648;SDS011;11491;41.942;24.220;2022-08-19T11:33:58;3.72;;;3.35;;
22648;SDS011;11491;41.942;24.220;2022-08-19T11:36:26;4.53;;;3.40;;
22648;SDS011;11491;41.942;24.220;2022-08-19T11:38:53;5.93;;;3.47;;
22648;SDS011;11491;41.942;24.220;2022-08-19T11:41:22;4.03;;;3.40;;
22648;SDS011;11491;41.942;24.220;2022-08-19T11:43:49;6.30;;;3.75;;
22648;SDS011;11491;41.942;24.220;2022-08-19T11:46:19;4.55;;;3.08;;
22648;SDS011;11491;41.942;24.220;2022-08-19T11:48:46;8.15;;;3.65;;
22648;SDS011;11491;41.942;24.220;2022-08-19T11:51:21;6.15;;;3.35;;
22648;SDS011;11491;41.942;24.220;2022-08-19T11:53:50;5.57;;;3.45;;
22648;SDS011;11491;41.942;24.220;2022-08-19T11:56:18;7.57;;;3.42;;
22648;SDS011;11491;41.942;24.220;2022-08-19T11:58:45;7.03;;;3.78;;
22648;SDS011;11491;41.942;24.220;2022-08-19T12:01:13;5.63;;;4.00;;
22648;SDS011;11491;41.942;24.220;2022-08-19T12:03:43;6.30;;;3.40;;
22648;SDS011;11491;41.942;24.220;2022-08-19T12:06:12;5.07;;;3.85;;
22648;SDS011;11491;41.942;24.220;2022-08-19T12:08:40;8.45;;;3.55;;
22648;SDS011;11491;41.942;24.220;2022-08-19T12:11:07;6.70;;;3.67;;
22648;SDS011;11491;41.942;24.220;2022-08-19T12:13:34;3.50;;;3.17;;
22648;SDS011;11491;41.942;24.220;2022-08-19T12:16:06;8.75;;;3.60;;
22648;SDS011;11491;41.942;24.220;2022-08-19T12:18:34;3.85;;;3.30;;
22648;SDS011;11491;41.942;24.220;2022-08-19T12:21:02;3.58;;;3.17;;
22648;SDS011;11491;41.942;24.220;2022-08-19T12:23:30;5.78;;;3.50;;
22648;SDS011;11491;41.942;24.220;2022-08-19T12:25:57;4.97;;;3.75;;
22648;SDS011;11491;41.942;24.220;2022-08-19T12:28:24;7.20;;;3.80;;
22648;SDS011;11491;41.942;24.220;2022-08-19T12:30:51;7.30;;;3.88;;
22648;SDS011;11491;41.942;24.220;2022-08-19T12:33:18;6.00;;;3.55;;
22648;SDS011;11491;41.942;24.220;2022-08-19T12:35:49;6.50;;;3.83;;
22648;SDS011;11491;41.942;24.220;2022-08-19T12:38:17;4.78;;;3.63;;
22648;SDS011;11491;41.942;24.220;2022-08-19T12:40:45;10.25;;;4.18;;
22648;SDS011;11491;41.942;24.220;2022-08-19T12:43:12;5.32;;;4.03;;
22648;SDS011;11491;41.942;24.220;2022-08-19T12:45:42;5.15;;;3.47;;
22648;SDS011;11491;41.942;24.220;2022-08-19T12:48:10;5.45;;;3.83;;
22648;SDS011;11491;41.942;24.220;2022-08-19T12:50:38;6.22;;;3.90;;
22648;SDS011;11491;41.942;24.220;2022-08-19T12:53:05;4.30;;;3.90;;
22648;SDS011;11491;41.942;24.220;2022-08-19T12:58:41;4.20;;;3.47;;
22648;SDS011;11491;41.942;24.220;2022-08-19T13:01:09;5.32;;;3.78;;
22648;SDS011;11491;41.942;24.220;2022-08-19T13:03:38;4.72;;;4.05;;
22648;SDS011;11491;41.942;24.220;2022-08-19T13:06:05;6.60;;;4.18;;
22648;SDS011;11491;41.942;24.220;2022-08-19T13:08:33;10.07;;;4.07;;
22648;SDS011;11491;41.942;24.220;2022-08-19T13:11:08;5.32;;;4.00;;
22648;SDS011;11491;41.942;24.220;2022-08-19T13:13:37;4.85;;;3.88;;
22648;SDS011;11491;41.942;24.220;2022-08-19T13:16:08;6.55;;;3.80;;
22648;SDS011;11491;41.942;24.220;2022-08-19T13:18:36;5.38;;;3.88;;
22648;SDS011;11491;41.942;24.220;2022-08-19T13:21:04;7.32;;;4.03;;
22648;SDS011;11491;41.942;24.220;2022-08-19T13:23:32;8.35;;;4.00;;
22648;SDS011;11491;41.942;24.220;2022-08-19T13:26:01;5.75;;;3.85;;
22648;SDS011;11491;41.942;24.220;2022-08-19T13:28:30;5.55;;;3.80;;
22648;SDS011;11491;41.942;24.220;2022-08-19T13:31:16;8.48;;;4.50;;
22648;SDS011;11491;41.942;24.220;2022-08-19T13:34:04;8.48;;;4.25;;
22648;SDS011;11491;41.942;24.220;2022-08-19T13:36:31;5.65;;;4.43;;
22648;SDS011;11491;41.942;24.220;2022-08-19T13:38:59;6.05;;;4.10;;
22648;SDS011;11491;41.942;24.220;2022-08-19T13:41:26;5.10;;;4.18;;
22648;SDS011;11491;41.942;24.220;2022-08-19T13:43:53;4.63;;;4.22;;
22648;SDS011;11491;41.942;24.220;2022-08-19T13:46:21;5.13;;;4.63;;
22648;SDS011;11491;41.942;24.220;2022-08-19T13:48:48;5.38;;;4.85;;
22648;SDS011;11491;41.942;24.220;2022-08-19T13:51:15;6.07;;;5.00;;
22648;SDS011;11491;41.942;24.220;2022-08-19T13:53:43;4.85;;;4.30;;
22648;SDS011;11491;41.942;24.220;2022-08-19T13:56:11;8.63;;;4.40;;
22648;SDS011;11491;41.942;24.220;2022-08-19T13:58:40;8.00;;;4.63;;
22648;SDS011;11491;41.942;24.220;2022-08-19T14:01:08;6.32;;;4.55;;
22648;SDS011;11491;41.942;24.220;2022-08-19T14:03:37;4.75;;;4.25;;
22648;SDS011;11491;41.942;24.220;2022-08-19T14:06:04;4.80;;;4.35;;
22648;SDS011;11491;41.942;24.220;2022-08-19T14:08:31;6.38;;;4.55;;
22648;SDS011;11491;41.942;24.220;2022-08-19T14:10:58;7.35;;;4.35;;
22648;SDS011;11491;41.942;24.220;2022-08-19T14:13:25;6.82;;;4.43;;
22648;SDS011;11491;41.942;24.220;2022-08-19T14:15:52;5.10;;;4.47;;
22648;SDS011;11491;41.942;24.220;2022-08-19T14:18:19;10.07;;;4.60;;
22648;SDS011;11491;41.942;24.220;2022-08-19T14:20:48;8.80;;;4.65;;
22648;SDS011;11491;41.942;24.220;2022-08-19T14:23:15;6.43;;;4.60;;
22648;SDS011;11491;41.942;24.220;2022-08-19T14:25:42;7.32;;;4.57;;
22648;SDS011;11491;41.942;24.220;2022-08-19T14:28:09;4.95;;;4.47;;
22648;SDS011;11491;41.942;24.220;2022-08-19T14:30:36;8.60;;;5.20;;
22648;SDS011;11491;41.942;24.220;2022-08-19T14:33:04;5.80;;;4.03;;
22648;SDS011;11491;41.942;24.220;2022-08-19T14:35:32;8.55;;;4.60;;
22648;SDS011;11491;41.942;24.220;2022-08-19T14:38:02;8.30;;;5.00;;